createdAt,value
2023-05-14T00:00:18.290Z,17.7207
2023-05-14T00:01:20.010Z,17.8992
2023-05-14T00:02:21.636Z,17.9861
2023-05-14T00:03:23.361Z,18.0590
2023-05-14T00:04:24.895Z,17.9957
2023-05-14T00:05:26.563Z,17.9596
2023-05-14T00:06:28.180Z,17.9129
2023-05-14T00:07:30.273Z,17.8856
2023-05-14T00:08:31.460Z,17.9388
2023-05-14T00:09:33.158Z,17.9690
2023-05-14T00:10:34.766Z,17.9772
2023-05-14T00:11:36.445Z,18.0267
2023-05-14T00:12:38.070Z,18.0598
2023-05-14T00:13:39.701Z,18.0261
2023-05-14T00:14:41.366Z,18.0107
2023-05-14T00:15:43.017Z,17.7800
2023-05-14T00:16:44.629Z,17.5738
2023-05-14T00:17:46.380Z,17.7006
2023-05-14T00:18:47.916Z,17.8967
2023-05-14T00:19:49.571Z,17.9518
2023-05-14T00:20:51.728Z,17.9750
2023-05-14T00:21:52.832Z,17.9879
2023-05-14T00:22:54.539Z,17.9768
2023-05-14T00:23:56.159Z,17.9526
2023-05-14T00:24:57.822Z,17.9571
2023-05-14T00:25:59.426Z,17.9811
2023-05-14T00:27:01.079Z,18.0044
2023-05-14T00:28:02.744Z,18.0015
2023-05-14T00:29:04.331Z,17.9822
2023-05-14T00:30:06.113Z,18.0017
2023-05-14T00:31:07.697Z,17.9916
2023-05-14T00:32:09.258Z,17.9275
2023-05-14T00:33:10.998Z,17.9816
2023-05-14T00:34:12.568Z,18.0296
2023-05-14T00:35:14.251Z,18.0419
2023-05-14T00:36:15.847Z,18.0037
2023-05-14T00:37:17.536Z,17.9873
2023-05-14T00:38:19.278Z,17.9873
2023-05-14T00:39:20.754Z,17.9374
2023-05-14T00:40:22.871Z,17.9608
2023-05-14T00:41:24.065Z,17.9746
2023-05-14T00:42:25.724Z,17.9826
2023-05-14T00:43:27.386Z,17.9863
2023-05-14T00:44:29.089Z,18.0054
2023-05-14T00:45:30.637Z,18.0062
2023-05-14T00:46:32.324Z,18.0062
2023-05-14T00:47:34.030Z,18.0019
2023-05-14T00:48:35.623Z,17.9807
2023-05-14T00:49:37.248Z,17.9374
2023-05-14T00:50:38.970Z,17.9269
2023-05-14T00:51:40.524Z,17.9540
2023-05-14T00:52:42.255Z,17.9637
2023-05-14T00:53:43.859Z,17.9731
2023-05-14T00:54:45.556Z,17.9707
2023-05-14T00:55:47.027Z,17.9473
2023-05-14T00:56:48.754Z,17.9047
2023-05-14T00:57:50.317Z,17.9491
2023-05-14T00:58:52.996Z,17.9577
2023-05-14T00:59:53.753Z,17.9737
2023-05-14T01:00:55.291Z,17.9602
2023-05-14T01:01:56.922Z,17.9588
2023-05-14T01:02:58.701Z,17.8930
2023-05-14T01:04:00.290Z,17.9142
2023-05-14T01:05:02.319Z,17.9538
2023-05-14T01:06:03.495Z,17.9725
2023-05-14T01:07:05.139Z,17.9924
2023-05-14T01:08:06.770Z,18.0031
2023-05-14T01:09:08.431Z,17.9949
2023-05-14T01:10:11.044Z,17.9768
2023-05-14T01:11:11.753Z,17.9230
2023-05-14T01:12:13.355Z,17.9076
2023-05-14T01:13:14.968Z,17.9409
2023-05-14T01:14:17.108Z,17.9596
2023-05-14T01:15:18.613Z,17.9661
2023-05-14T01:16:20.774Z,17.9943
2023-05-14T01:17:21.534Z,17.9616
2023-05-14T01:18:23.218Z,17.7864
2023-05-14T01:19:24.915Z,17.8965
2023-05-14T01:20:26.639Z,17.9181
2023-05-14T01:21:28.201Z,17.9310
2023-05-14T01:22:29.919Z,17.9524
2023-05-14T01:23:31.398Z,17.9674
2023-05-14T01:24:33.085Z,17.9781
2023-05-14T01:25:34.789Z,17.9754
2023-05-14T01:26:36.472Z,17.9579
2023-05-14T01:27:38.704Z,17.9551
2023-05-14T01:28:39.794Z,17.9664
2023-05-14T01:29:41.317Z,17.9805
2023-05-14T01:30:43.355Z,18.0081
2023-05-14T01:31:44.651Z,17.9848
2023-05-14T01:32:46.322Z,17.9787
2023-05-14T01:33:47.889Z,17.9540
2023-05-14T01:34:49.542Z,17.9534
2023-05-14T01:35:51.251Z,17.9684
2023-05-14T01:36:53.263Z,17.9731
2023-05-14T01:37:54.502Z,17.9166
2023-05-14T01:38:56.109Z,17.9232
2023-05-14T01:39:57.798Z,17.9421
2023-05-14T01:40:59.426Z,17.9368
2023-05-14T01:42:01.318Z,17.9581
2023-05-14T01:43:02.759Z,17.9719
2023-05-14T01:44:04.485Z,17.9674
2023-05-14T01:45:05.973Z,17.9622
2023-05-14T01:46:07.669Z,17.9588
2023-05-14T01:47:09.800Z,17.8924
2023-05-14T01:48:11.140Z,17.8409
2023-05-14T01:49:12.542Z,17.8008
2023-05-14T01:50:14.241Z,17.8860
2023-05-14T01:51:15.861Z,17.9495
2023-05-14T01:52:17.814Z,17.9598
2023-05-14T01:53:19.216Z,17.8702
2023-05-14T01:54:20.824Z,17.8521
2023-05-14T01:55:22.451Z,17.8762
2023-05-14T01:56:24.119Z,17.9101
2023-05-14T01:57:25.796Z,17.9117
2023-05-14T01:58:27.386Z,17.9483
2023-05-14T01:59:29.104Z,17.9473
2023-05-14T02:00:30.613Z,17.9376
2023-05-14T02:01:33.325Z,17.9376
2023-05-14T02:02:33.969Z,17.9284
2023-05-14T02:03:35.576Z,17.9544
2023-05-14T02:04:37.203Z,17.9458
2023-05-14T02:05:38.841Z,17.9622
2023-05-14T02:06:40.710Z,17.9296
2023-05-14T02:07:42.195Z,17.8181
2023-05-14T02:08:43.752Z,17.8129
2023-05-14T02:09:45.457Z,17.7979
2023-05-14T02:10:47.048Z,17.8524
2023-05-14T02:11:48.795Z,17.9362
2023-05-14T02:12:50.386Z,17.9271
2023-05-14T02:13:52.045Z,17.9532
2023-05-14T02:14:53.639Z,17.9405
2023-05-14T02:15:55.350Z,17.8887
2023-05-14T02:16:56.949Z,17.8815
2023-05-14T02:17:58.836Z,17.8963
2023-05-14T02:19:01.281Z,17.9304
2023-05-14T02:20:01.878Z,17.9470
2023-05-14T02:21:03.549Z,17.8928
2023-05-14T02:22:05.164Z,17.8735
2023-05-14T02:23:07.761Z,17.9281
2023-05-14T02:24:08.498Z,17.9199
2023-05-14T02:25:10.080Z,17.9017
2023-05-14T02:26:11.708Z,17.9284
2023-05-14T02:27:13.395Z,17.9152
2023-05-14T02:28:15.747Z,17.8330
2023-05-14T02:29:16.678Z,17.8708
2023-05-14T02:30:18.296Z,17.8626
2023-05-14T02:31:20.068Z,17.8856
2023-05-14T02:32:21.603Z,17.8936
2023-05-14T02:33:23.375Z,17.8906
2023-05-14T02:34:25.051Z,17.8302
2023-05-14T02:35:26.542Z,17.7854
2023-05-14T02:36:28.245Z,17.8250
2023-05-14T02:37:29.824Z,17.7634
2023-05-14T02:38:31.491Z,17.7034
2023-05-14T02:39:33.077Z,17.7155
2023-05-14T02:40:34.773Z,17.7425
2023-05-14T02:41:36.346Z,17.7788
2023-05-14T02:42:38.221Z,17.7985
2023-05-14T02:43:39.641Z,17.7883
2023-05-14T02:44:41.334Z,17.8055
2023-05-14T02:45:42.968Z,17.8285
2023-05-14T02:46:44.623Z,17.8168
2023-05-14T02:47:46.384Z,17.8735
2023-05-14T02:48:48.739Z,17.7457
2023-05-14T02:49:49.526Z,17.7924
2023-05-14T02:50:51.222Z,17.8137
2023-05-14T02:51:52.799Z,17.7242
2023-05-14T02:52:54.703Z,17.3863
2023-05-14T02:53:57.196Z,17.6159
2023-05-14T02:54:58.866Z,17.8801
2023-05-14T02:55:59.622Z,18.2170
2023-05-14T02:57:01.188Z,18.5885
2023-05-14T02:58:02.863Z,18.7453
2023-05-14T02:59:04.579Z,18.9147
2023-05-14T03:00:06.151Z,18.9891
2023-05-14T03:01:07.867Z,19.0168
2023-05-14T03:02:09.407Z,19.0801
2023-05-14T03:03:11.118Z,19.1397
2023-05-14T03:04:12.688Z,19.1195
2023-05-14T03:05:14.314Z,19.1990
2023-05-14T03:06:15.995Z,19.2758
2023-05-14T03:07:17.643Z,19.3173
2023-05-14T03:08:19.329Z,19.3192
2023-05-14T03:09:20.900Z,19.3703
2023-05-14T03:10:22.686Z,19.3999
2023-05-14T03:11:24.340Z,19.3646
2023-05-14T03:12:25.821Z,19.2738
2023-05-14T03:13:27.507Z,19.3227
2023-05-14T03:14:29.146Z,19.4147
2023-05-14T03:15:30.791Z,19.4644
2023-05-14T03:16:33.379Z,19.4780
2023-05-14T03:17:34.088Z,19.4572
2023-05-14T03:18:35.836Z,19.4437
2023-05-14T03:19:37.370Z,19.4634
2023-05-14T03:20:38.932Z,19.4570
2023-05-14T03:21:40.630Z,19.4315
2023-05-14T03:22:42.235Z,19.4465
2023-05-14T03:23:43.969Z,19.5373
2023-05-14T03:24:45.538Z,19.5827
2023-05-14T03:25:47.562Z,19.5369
2023-05-14T03:26:49.208Z,19.5100
2023-05-14T03:27:50.593Z,19.4652
2023-05-14T03:28:52.100Z,19.3194
2023-05-14T03:29:53.746Z,19.3874
2023-05-14T03:30:55.745Z,19.4492
2023-05-14T03:31:57.354Z,19.4827
2023-05-14T03:32:58.990Z,19.5355
2023-05-14T03:34:00.409Z,19.5379
2023-05-14T03:35:02.017Z,19.4196
2023-05-14T03:36:03.686Z,19.4665
2023-05-14T03:37:05.266Z,19.6010
2023-05-14T03:38:07.008Z,19.6328
2023-05-14T03:39:08.648Z,19.5306
2023-05-14T03:40:10.267Z,19.5486
2023-05-14T03:41:11.864Z,19.6322
2023-05-14T03:42:13.568Z,19.5429
2023-05-14T03:43:15.160Z,19.5195
2023-05-14T03:44:16.854Z,19.5332
2023-05-14T03:45:18.558Z,19.5320
2023-05-14T03:46:20.129Z,19.4989
2023-05-14T03:47:22.064Z,19.4589
2023-05-14T03:48:23.841Z,19.4595
2023-05-14T03:49:25.067Z,19.4094
2023-05-14T03:50:26.714Z,19.1699
2023-05-14T03:51:28.304Z,19.2463
2023-05-14T03:52:30.057Z,19.2428
2023-05-14T03:53:31.659Z,19.3880
2023-05-14T03:54:33.271Z,19.4574
2023-05-14T03:55:34.862Z,19.4734
2023-05-14T03:56:36.612Z,19.4330
2023-05-14T03:57:38.198Z,19.3966
2023-05-14T03:58:39.866Z,19.4650
2023-05-14T03:59:41.465Z,19.4952
2023-05-14T04:00:43.094Z,19.4870
2023-05-14T04:01:44.923Z,19.5369
2023-05-14T04:02:46.562Z,19.6049
2023-05-14T04:03:48.580Z,19.6053
2023-05-14T04:04:49.814Z,19.5944
2023-05-14T04:05:51.878Z,19.6244
2023-05-14T04:06:53.922Z,19.6563
2023-05-14T04:07:54.593Z,19.6830
2023-05-14T04:08:56.361Z,19.6768
2023-05-14T04:09:57.921Z,19.6862
2023-05-14T04:10:59.524Z,19.6971
2023-05-14T04:12:01.186Z,19.6464
2023-05-14T04:13:02.837Z,19.6283
2023-05-14T04:14:05.367Z,19.6252
2023-05-14T04:15:06.149Z,19.4987
2023-05-14T04:16:07.835Z,19.5560
2023-05-14T04:17:09.447Z,19.6561
2023-05-14T04:18:11.029Z,19.7043
2023-05-14T04:19:12.787Z,19.7245
2023-05-14T04:20:14.348Z,19.7639
2023-05-14T04:21:16.039Z,19.7041
2023-05-14T04:22:17.612Z,19.6370
2023-05-14T04:23:19.233Z,19.4344
2023-05-14T04:24:20.908Z,19.4597
2023-05-14T04:25:22.664Z,19.5942
2023-05-14T04:26:24.165Z,19.7025
2023-05-14T04:27:25.892Z,19.7216
2023-05-14T04:28:27.516Z,19.7355
2023-05-14T04:29:29.176Z,19.4361
2023-05-14T04:30:30.889Z,19.5792
2023-05-14T04:31:33.440Z,19.6688
2023-05-14T04:32:34.088Z,19.7499
2023-05-14T04:33:35.722Z,19.8003
2023-05-14T04:34:37.342Z,19.8083
2023-05-14T04:35:39.023Z,19.7809
2023-05-14T04:36:40.639Z,19.3855
2023-05-14T04:37:42.368Z,18.9642
2023-05-14T04:38:43.994Z,19.0226
2023-05-14T04:39:45.586Z,19.3496
2023-05-14T04:40:47.227Z,19.4989
2023-05-14T04:41:48.876Z,19.6199
2023-05-14T04:42:50.580Z,19.7927
2023-05-14T04:43:52.140Z,19.9042
2023-05-14T04:44:53.811Z,19.7078
2023-05-14T04:45:55.432Z,19.2839
2023-05-14T04:46:57.136Z,19.3937
2023-05-14T04:47:58.768Z,19.6061
2023-05-14T04:49:00.361Z,19.8052
2023-05-14T04:50:02.137Z,19.8557
2023-05-14T04:51:05.634Z,19.7286
2023-05-14T04:52:05.318Z,19.9266
2023-05-14T04:53:06.985Z,20.0445
2023-05-14T04:54:08.597Z,20.6131
2023-05-14T04:55:10.287Z,21.0198
2023-05-14T04:56:11.965Z,21.2124
2023-05-14T04:57:13.597Z,21.3946
2023-05-14T04:58:15.174Z,21.6535
2023-05-14T04:59:16.904Z,22.0976
2023-05-14T05:00:19.394Z,22.4626
2023-05-14T05:01:20.177Z,22.5868
2023-05-14T05:02:21.798Z,22.4722
2023-05-14T05:03:23.408Z,22.6314
2023-05-14T05:04:25.082Z,22.9605
2023-05-14T05:05:26.698Z,23.2306
2023-05-14T05:06:28.317Z,23.1727
2023-05-14T05:07:30.073Z,23.3592
2023-05-14T05:08:31.700Z,23.4779
2023-05-14T05:09:33.275Z,23.6714
2023-05-14T05:10:34.936Z,23.8598
2023-05-14T05:11:36.619Z,23.8592
2023-05-14T05:12:39.180Z,23.7028
2023-05-14T05:13:39.894Z,23.7577
2023-05-14T05:14:41.436Z,24.0580
2023-05-14T05:15:43.535Z,24.3836
2023-05-14T05:16:45.655Z,24.5087
2023-05-14T05:17:46.436Z,24.0611
2023-05-14T05:18:48.060Z,23.9594
2023-05-14T05:19:49.660Z,24.0498
2023-05-14T05:20:51.279Z,24.3854
2023-05-14T05:21:52.927Z,24.7178
2023-05-14T05:22:54.615Z,24.6475
2023-05-14T05:23:56.272Z,24.1718
2023-05-14T05:24:57.845Z,24.3150
2023-05-14T05:25:59.549Z,24.4914
2023-05-14T05:27:01.249Z,24.7451
2023-05-14T05:28:02.839Z,24.9873
2023-05-14T05:29:04.465Z,24.7017
2023-05-14T05:30:06.233Z,24.6007
2023-05-14T05:31:07.857Z,24.7233
2023-05-14T05:32:09.436Z,24.7344
2023-05-14T05:33:11.266Z,24.9378
2023-05-14T05:34:12.726Z,24.9682
2023-05-14T05:35:14.501Z,24.7617
2023-05-14T05:36:16.077Z,24.9667
2023-05-14T05:37:17.784Z,24.9402
2023-05-14T05:38:19.424Z,25.1017
2023-05-14T05:39:21.067Z,25.3808
2023-05-14T05:40:22.770Z,25.0815
2023-05-14T05:41:24.316Z,24.5438
2023-05-14T05:42:25.913Z,24.5884
2023-05-14T05:43:27.582Z,24.9189
2023-05-14T05:44:29.263Z,25.2865
2023-05-14T05:45:30.867Z,25.4429
2023-05-14T05:46:32.603Z,25.0292
2023-05-14T05:47:34.143Z,25.0376
2023-05-14T05:48:35.763Z,25.1840
2023-05-14T05:49:37.455Z,25.2818
2023-05-14T05:50:39.078Z,25.4973
2023-05-14T05:51:40.714Z,25.3763
2023-05-14T05:52:42.314Z,24.8644
2023-05-14T05:53:44.903Z,25.1676
2023-05-14T05:54:45.671Z,25.3075
2023-05-14T05:55:47.317Z,25.3699
2023-05-14T05:56:48.888Z,25.4936
2023-05-14T05:57:50.602Z,25.2161
2023-05-14T05:58:52.949Z,25.1539
2023-05-14T05:59:54.911Z,24.9630
2023-05-14T06:00:55.468Z,25.0614
2023-05-14T06:01:57.194Z,25.3410
2023-05-14T06:02:58.822Z,25.3473
2023-05-14T06:04:00.512Z,25.0162
2023-05-14T06:05:02.214Z,25.1953
2023-05-14T06:06:03.734Z,25.1578
2023-05-14T06:07:05.651Z,25.3463
2023-05-14T06:08:07.028Z,25.4961
2023-05-14T06:09:08.686Z,25.3087
2023-05-14T06:10:10.358Z,24.9673
2023-05-14T06:11:11.894Z,25.2099
2023-05-14T06:12:13.624Z,25.2239
2023-05-14T06:13:15.229Z,25.3044
2023-05-14T06:14:16.937Z,25.4564
2023-05-14T06:15:18.917Z,25.5080
2023-05-14T06:16:20.199Z,25.2691
2023-05-14T06:17:21.811Z,25.5123
2023-05-14T06:18:23.485Z,25.4443
2023-05-14T06:19:25.145Z,25.4398
2023-05-14T06:20:26.906Z,25.5012
2023-05-14T06:21:28.408Z,25.1711
2023-05-14T06:22:30.041Z,25.3328
2023-05-14T06:23:31.641Z,25.6099
2023-05-14T06:24:33.448Z,25.4897
2023-05-14T06:25:34.976Z,25.6142
2023-05-14T06:26:36.632Z,25.7111
2023-05-14T06:27:38.246Z,25.4188
2023-05-14T06:28:39.992Z,25.4231
2023-05-14T06:29:41.563Z,25.7456
2023-05-14T06:30:43.283Z,25.8210
2023-05-14T06:31:44.898Z,25.9254
2023-05-14T06:32:46.593Z,25.8356
2023-05-14T06:33:48.112Z,25.4305
2023-05-14T06:34:49.883Z,25.5871
2023-05-14T06:35:51.446Z,25.6596
2023-05-14T06:36:53.103Z,25.8753
2023-05-14T06:37:54.803Z,25.9946
2023-05-14T06:38:56.368Z,25.7641
2023-05-14T06:39:58.172Z,25.3792
2023-05-14T06:40:59.707Z,25.6201
2023-05-14T06:42:01.367Z,25.8923
2023-05-14T06:43:02.987Z,25.9365
2023-05-14T06:44:04.603Z,26.0778
2023-05-14T06:45:06.256Z,25.6988
2023-05-14T06:46:08.426Z,25.4248
2023-05-14T06:47:09.615Z,25.7649
2023-05-14T06:48:11.235Z,25.7356
2023-05-14T06:49:12.852Z,25.8868
2023-05-14T06:50:14.561Z,26.0521
2023-05-14T06:51:16.901Z,25.6877
2023-05-14T06:52:17.766Z,25.5534
2023-05-14T06:53:19.419Z,25.5203
2023-05-14T06:54:21.068Z,25.4326
2023-05-14T06:55:22.700Z,25.2440
2023-05-14T06:56:24.405Z,25.4706
2023-05-14T06:57:25.943Z,25.6811
2023-05-14T06:58:27.627Z,25.5538
2023-05-14T06:59:29.216Z,25.5581
2023-05-14T07:00:30.980Z,25.8011
2023-05-14T07:01:32.532Z,25.6559
2023-05-14T07:02:34.158Z,25.6791
2023-05-14T07:03:36.301Z,25.8730
2023-05-14T07:04:37.469Z,25.8373
2023-05-14T07:05:39.048Z,25.8360
2023-05-14T07:06:40.801Z,26.0318
2023-05-14T07:07:42.356Z,25.8991
2023-05-14T07:08:44.051Z,26.0593
2023-05-14T07:09:45.630Z,25.9784
2023-05-14T07:10:47.385Z,25.5862
2023-05-14T07:11:49.480Z,25.8812
2023-05-14T07:12:50.616Z,26.0137
2023-05-14T07:13:52.266Z,26.0106
2023-05-14T07:14:53.933Z,26.2818
2023-05-14T07:15:55.533Z,26.0012
2023-05-14T07:16:57.245Z,25.7138
2023-05-14T07:17:58.859Z,26.0739
2023-05-14T07:19:00.558Z,25.9858
2023-05-14T07:20:02.134Z,26.1651
2023-05-14T07:21:03.801Z,26.4237
2023-05-14T07:22:05.414Z,26.0158
2023-05-14T07:23:07.050Z,25.8746
2023-05-14T07:24:08.716Z,26.2080
2023-05-14T07:25:10.344Z,26.2185
2023-05-14T07:26:12.015Z,26.3095
2023-05-14T07:27:13.615Z,26.2208
2023-05-14T07:28:15.254Z,25.7758
2023-05-14T07:29:16.983Z,25.6403
2023-05-14T07:30:18.533Z,25.9839
2023-05-14T07:31:20.309Z,25.9792
2023-05-14T07:32:21.852Z,26.1209
2023-05-14T07:33:23.509Z,26.2970
2023-05-14T07:34:25.148Z,25.8062
2023-05-14T07:35:26.747Z,25.6998
2023-05-14T07:36:28.426Z,26.2327
2023-05-14T07:37:30.109Z,26.2380
2023-05-14T07:38:31.720Z,26.3397
2023-05-14T07:39:33.345Z,26.2889
2023-05-14T07:40:34.980Z,25.7923
2023-05-14T07:41:37.333Z,26.0310
2023-05-14T07:42:38.263Z,26.0498
2023-05-14T07:43:39.949Z,26.0809
2023-05-14T07:44:41.616Z,26.3163
2023-05-14T07:45:43.214Z,26.2682
2023-05-14T07:46:44.928Z,25.8268
2023-05-14T07:47:46.534Z,25.4856
2023-05-14T07:48:48.126Z,25.5026
2023-05-14T07:49:49.778Z,25.6004
2023-05-14T07:50:51.444Z,25.7699
2023-05-14T07:51:53.843Z,25.8025
2023-05-14T07:52:54.813Z,26.0628
2023-05-14T07:53:56.512Z,26.2068
2023-05-14T07:54:58.279Z,26.0726
2023-05-14T07:55:59.770Z,25.9229
2023-05-14T07:57:01.511Z,25.7456
2023-05-14T07:58:03.574Z,25.8025
2023-05-14T07:59:04.751Z,25.9917
2023-05-14T08:00:06.545Z,26.1669
2023-05-14T08:01:09.078Z,26.0096
2023-05-14T08:02:09.711Z,25.9724
2023-05-14T08:03:11.452Z,26.1462
2023-05-14T08:04:13.159Z,25.9913
2023-05-14T08:05:14.608Z,25.8253
2023-05-14T08:06:16.273Z,25.9695
2023-05-14T08:07:17.906Z,26.1581
2023-05-14T08:08:19.516Z,26.3604
2023-05-14T08:09:21.210Z,26.4882
2023-05-14T08:10:24.025Z,26.1328
2023-05-14T08:11:24.420Z,26.2803
2023-05-14T08:12:27.094Z,25.8366
2023-05-14T08:13:27.722Z,25.2270
2023-05-14T08:14:29.632Z,25.1257
2023-05-14T08:15:31.023Z,25.0438
2023-05-14T08:16:32.785Z,24.6362
2023-05-14T08:17:34.363Z,24.5204
2023-05-14T08:18:36.040Z,24.4162
2023-05-14T08:19:38.561Z,24.4004
2023-05-14T08:20:39.294Z,24.3620
2023-05-14T08:21:41.052Z,24.3394
2023-05-14T08:22:42.685Z,24.0331
2023-05-14T08:23:44.552Z,24.2574
2023-05-14T08:24:45.926Z,24.0440
2023-05-14T08:25:47.519Z,23.8922
2023-05-14T08:26:49.264Z,23.9506
2023-05-14T08:27:50.823Z,24.0124
2023-05-14T08:28:52.488Z,23.8437
2023-05-14T08:29:54.056Z,23.9627
2023-05-14T08:30:55.759Z,23.7938
2023-05-14T08:31:57.610Z,23.8830
2023-05-14T08:32:59.716Z,23.8702
2023-05-14T08:34:00.687Z,23.7082
2023-05-14T08:35:02.278Z,23.8335
2023-05-14T08:36:03.996Z,23.4985
2023-05-14T08:37:05.640Z,23.5052
2023-05-14T08:38:08.266Z,23.5266
2023-05-14T08:39:09.029Z,23.7484
2023-05-14T08:40:10.523Z,23.4251
2023-05-14T08:41:12.317Z,23.4775
2023-05-14T08:42:13.858Z,23.4068
2023-05-14T08:43:15.580Z,23.3785
2023-05-14T08:44:17.155Z,23.4611
2023-05-14T08:45:18.864Z,23.4968
2023-05-14T08:46:20.422Z,23.5925
2023-05-14T08:47:22.123Z,23.5995
2023-05-14T08:48:23.774Z,23.4670
2023-05-14T08:49:25.366Z,23.3947
2023-05-14T08:50:27.455Z,23.5763
2023-05-14T08:51:28.636Z,23.4262
2023-05-14T08:52:30.283Z,23.3559
2023-05-14T08:53:31.953Z,23.2589
2023-05-14T08:54:33.619Z,23.2750
2023-05-14T08:55:35.213Z,23.3647
2023-05-14T08:56:36.830Z,23.5459
2023-05-14T08:57:38.542Z,23.1862
2023-05-14T08:58:40.200Z,23.2542
2023-05-14T08:59:41.894Z,23.1478
2023-05-14T09:00:43.459Z,23.1597
2023-05-14T09:01:45.146Z,23.3641
2023-05-14T09:02:46.805Z,23.3750
2023-05-14T09:03:48.351Z,23.2156
2023-05-14T09:04:49.979Z,23.0889
2023-05-14T09:05:51.807Z,23.0669
2023-05-14T09:06:53.305Z,23.0737
2023-05-14T09:07:55.009Z,23.3925
2023-05-14T09:08:56.586Z,23.1696
2023-05-14T09:09:58.322Z,23.1573
2023-05-14T09:11:00.868Z,23.1517
2023-05-14T09:12:01.583Z,22.8970
2023-05-14T09:13:03.215Z,22.8239
2023-05-14T09:14:04.775Z,23.1801
2023-05-14T09:15:07.250Z,22.8691
2023-05-14T09:16:08.156Z,22.8773
2023-05-14T09:17:09.828Z,22.8689
2023-05-14T09:18:11.372Z,22.8040
2023-05-14T09:19:13.193Z,22.8280
2023-05-14T09:20:14.693Z,23.1560
2023-05-14T09:21:16.491Z,22.8615
2023-05-14T09:22:17.985Z,22.7740
2023-05-14T09:23:19.710Z,22.7086
2023-05-14T09:24:21.381Z,22.8083
2023-05-14T09:25:24.034Z,22.9093
2023-05-14T09:26:24.520Z,23.0482
2023-05-14T09:27:27.244Z,22.6470
2023-05-14T09:28:27.844Z,22.7162
2023-05-14T09:29:29.494Z,22.6409
2023-05-14T09:30:32.522Z,22.4026
2023-05-14T09:31:32.746Z,22.6027
2023-05-14T09:32:35.552Z,22.7078
2023-05-14T09:33:36.116Z,22.4118
2023-05-14T09:34:38.108Z,22.4346
2023-05-14T09:35:39.531Z,22.3745
2023-05-14T09:36:41.165Z,22.1008
2023-05-14T09:37:42.800Z,22.4385
2023-05-14T09:38:44.441Z,22.4942
2023-05-14T09:39:45.982Z,22.1117
2023-05-14T09:40:47.750Z,22.2368
2023-05-14T09:41:49.327Z,22.0557
2023-05-14T09:42:50.982Z,21.8638
2023-05-14T09:43:52.634Z,22.2937
2023-05-14T09:44:54.261Z,22.4223
2023-05-14T09:45:55.960Z,22.1017
2023-05-14T09:46:57.614Z,22.1228
2023-05-14T09:48:00.329Z,22.0594
2023-05-14T09:49:00.806Z,21.9963
2023-05-14T09:50:03.425Z,22.2943
2023-05-14T09:51:04.738Z,22.4496
2023-05-14T09:52:05.728Z,22.1766
2023-05-14T09:53:07.472Z,22.3769
2023-05-14T09:54:09.105Z,22.3671
2023-05-14T09:55:10.675Z,22.2935
2023-05-14T09:56:12.485Z,22.6345
2023-05-14T09:57:14.055Z,22.8095
2023-05-14T09:58:15.667Z,22.5041
2023-05-14T09:59:17.593Z,22.6647
2023-05-14T10:00:18.986Z,22.6326
2023-05-14T10:01:21.704Z,22.4948
2023-05-14T10:02:22.328Z,22.7988
2023-05-14T10:03:23.929Z,22.9268
2023-05-14T10:04:25.511Z,22.7727
2023-05-14T10:05:27.209Z,22.9155
2023-05-14T10:06:28.820Z,22.8802
2023-05-14T10:07:30.449Z,22.7651
2023-05-14T10:08:32.639Z,23.0944
2023-05-14T10:09:33.784Z,23.1332
2023-05-14T10:10:35.385Z,23.0005
2023-05-14T10:11:38.101Z,23.2741
2023-05-14T10:12:38.689Z,23.3366
2023-05-14T10:13:40.282Z,23.1599
2023-05-14T10:14:42.026Z,23.5500
2023-05-14T10:15:43.612Z,23.3910
2023-05-14T10:16:45.274Z,23.4122
2023-05-14T10:17:47.085Z,23.4005
2023-05-14T10:18:48.661Z,23.1256
2023-05-14T10:19:50.223Z,23.0634
2023-05-14T10:20:51.799Z,23.4584
2023-05-14T10:21:53.521Z,23.1595
2023-05-14T10:22:55.138Z,23.0429
2023-05-14T10:23:56.973Z,23.1082
2023-05-14T10:24:58.540Z,23.0778
2023-05-14T10:26:00.201Z,23.0369
2023-05-14T10:27:01.774Z,23.3719
2023-05-14T10:28:03.385Z,23.1723
2023-05-14T10:29:05.026Z,23.2885
2023-05-14T10:30:06.656Z,23.2990
2023-05-14T10:31:08.264Z,23.0874
2023-05-14T10:32:10.062Z,23.1538
2023-05-14T10:33:12.619Z,23.3781
2023-05-14T10:34:13.193Z,23.1275
2023-05-14T10:35:15.863Z,23.3826
2023-05-14T10:36:16.484Z,23.3013
2023-05-14T10:37:18.134Z,22.9907
2023-05-14T10:38:19.712Z,23.3037
2023-05-14T10:39:21.444Z,23.4697
2023-05-14T10:40:23.133Z,23.0170
2023-05-14T10:41:24.762Z,23.0470
2023-05-14T10:42:26.315Z,23.1398
2023-05-14T10:43:28.000Z,22.9685
2023-05-14T10:44:29.632Z,23.2852
2023-05-14T10:45:31.334Z,23.4826
2023-05-14T10:46:32.936Z,23.1049
2023-05-14T10:47:34.605Z,23.1544
2023-05-14T10:48:36.196Z,23.1764
2023-05-14T10:49:43.349Z,22.9182
2023-05-14T10:50:39.516Z,23.3590
2023-05-14T10:51:41.253Z,23.2875
2023-05-14T10:52:42.780Z,22.9330
2023-05-14T10:53:44.494Z,23.1113
2023-05-14T10:54:46.080Z,23.1836
2023-05-14T10:55:47.732Z,23.1022
2023-05-14T10:56:49.407Z,23.4360
2023-05-14T10:57:51.017Z,23.1088
2023-05-14T10:58:52.664Z,23.1045
2023-05-14T10:59:55.171Z,23.2041
2023-05-14T11:00:56.025Z,22.9122
2023-05-14T11:01:57.749Z,23.0568
2023-05-14T11:02:59.368Z,23.4956
2023-05-14T11:04:01.017Z,23.1575
2023-05-14T11:05:04.440Z,23.1197
2023-05-14T11:06:04.235Z,23.1786
2023-05-14T11:07:05.905Z,23.1375
2023-05-14T11:08:07.574Z,23.0642
2023-05-14T11:09:09.131Z,23.4537
2023-05-14T11:10:10.859Z,23.1998
2023-05-14T11:11:12.508Z,23.0928
2023-05-14T11:12:14.065Z,23.0032
2023-05-14T11:13:15.681Z,22.9601
2023-05-14T11:14:17.434Z,22.9247
2023-05-14T11:15:19.029Z,23.3082
2023-05-14T11:16:23.760Z,23.0266
2023-05-14T11:17:22.302Z,22.9724
2023-05-14T11:18:23.958Z,22.9286
2023-05-14T11:19:25.627Z,22.7220
2023-05-14T11:20:27.346Z,22.5096
2023-05-14T11:21:29.007Z,22.8687
2023-05-14T11:22:30.552Z,22.7567
2023-05-14T11:23:32.168Z,22.6904
2023-05-14T11:24:33.832Z,22.5930
2023-05-14T11:25:35.547Z,22.4819
2023-05-14T11:26:38.122Z,22.4843
2023-05-14T11:27:38.762Z,22.8362
2023-05-14T11:28:40.562Z,22.8292
2023-05-14T11:29:42.090Z,22.7898
2023-05-14T11:30:43.712Z,22.6583
2023-05-14T11:31:45.475Z,22.8128
2023-05-14T11:32:47.001Z,22.6051
2023-05-14T11:33:48.641Z,22.8066
2023-05-14T11:34:50.573Z,22.8925
2023-05-14T11:35:51.964Z,22.7639
2023-05-14T11:36:53.547Z,22.9278
2023-05-14T11:37:55.204Z,22.8693
2023-05-14T11:38:56.824Z,22.8046
2023-05-14T11:39:58.558Z,22.9309
2023-05-14T11:41:00.160Z,23.1881
2023-05-14T11:42:01.739Z,23.0741
2023-05-14T11:43:03.425Z,23.2419
2023-05-14T11:44:05.964Z,23.1090
2023-05-14T11:45:06.762Z,23.0895
2023-05-14T11:46:08.436Z,23.1160
2023-05-14T11:47:10.059Z,23.4050
2023-05-14T11:48:11.649Z,23.0556
2023-05-14T11:49:13.308Z,23.2107
2023-05-14T11:50:14.906Z,23.2612
2023-05-14T11:51:16.717Z,23.2893
2023-05-14T11:52:18.209Z,23.5192
2023-05-14T11:53:19.873Z,23.9177
2023-05-14T11:54:21.593Z,23.8224
2023-05-14T11:55:23.207Z,23.6710
2023-05-14T11:56:24.820Z,23.8633
2023-05-14T11:57:26.503Z,24.0052
2023-05-14T11:58:28.048Z,24.3688
2023-05-14T11:59:29.663Z,25.4476
2023-05-14T12:00:31.317Z,25.5914
2023-05-14T12:01:33.016Z,24.6173
2023-05-14T12:02:34.712Z,23.9565
2023-05-14T12:03:36.386Z,23.4812
2023-05-14T12:04:37.939Z,23.3744
2023-05-14T12:05:40.039Z,23.3762
2023-05-14T12:06:41.189Z,23.1550
2023-05-14T12:07:42.820Z,23.1147
2023-05-14T12:08:45.483Z,23.0431
2023-05-14T12:09:46.077Z,22.7964
2023-05-14T12:10:47.753Z,22.7536
2023-05-14T12:11:49.412Z,23.0157
2023-05-14T12:12:51.064Z,22.7008
2023-05-14T12:13:52.643Z,22.6016
2023-05-14T12:14:54.307Z,22.5723
2023-05-14T12:15:56.015Z,22.5916
2023-05-14T12:16:57.653Z,22.4850
2023-05-14T12:17:59.276Z,22.7263
2023-05-14T12:19:01.560Z,22.7553
2023-05-14T12:20:02.545Z,22.5310
2023-05-14T12:21:04.230Z,22.4570
2023-05-14T12:22:06.045Z,22.4967
2023-05-14T12:23:07.658Z,22.4049
2023-05-14T12:24:09.229Z,22.7623
2023-05-14T12:25:10.924Z,22.8800